createdAt,value
2022-12-16T00:05:14.472Z,99310.59
2022-12-16T00:08:16.078Z,99306.19
2022-12-16T00:11:17.748Z,99316.44
2022-12-16T00:14:21.426Z,99321.03
2022-12-16T00:17:23.267Z,99321.97
2022-12-16T00:20:26.400Z,99328.13
2022-12-16T00:23:28.786Z,99319.38
2022-12-16T00:26:31.297Z,99329.34
2022-12-16T00:29:34.766Z,99336.81
2022-12-16T00:32:36.465Z,99340.50
2022-12-16T00:35:44.397Z,99342.97
2022-12-16T00:38:47.468Z,99346.78
2022-12-16T00:41:50.831Z,99346.19
2022-12-16T00:44:53.623Z,99343.59
2022-12-16T00:47:56.571Z,99347.97
2022-12-16T00:50:59.765Z,99351.03
2022-12-16T00:54:01.675Z,99350.00
2022-12-16T00:57:03.475Z,99358.50
2022-12-16T01:00:12.828Z,99351.66
2022-12-16T01:03:19.604Z,99355.13
2022-12-16T01:06:24.781Z,99371.53
2022-12-16T01:09:26.406Z,99362.28
2022-12-16T01:12:28.252Z,99371.97
2022-12-16T01:15:29.939Z,99375.34
2022-12-16T01:18:31.740Z,99380.53
2022-12-16T01:21:34.884Z,99388.22
2022-12-16T01:24:36.621Z,99383.59
2022-12-16T01:27:38.306Z,99389.72
2022-12-16T01:30:40.045Z,99386.63
2022-12-16T01:33:41.812Z,99392.94
2022-12-16T01:36:44.895Z,99394.53
2022-12-16T01:39:47.564Z,99396.63
2022-12-16T01:42:49.333Z,99404.97
2022-12-16T01:45:52.551Z,99402.63
2022-12-16T01:48:59.158Z,99403.75
2022-12-16T01:52:05.514Z,99391.50
2022-12-16T01:55:12.765Z,99400.91
2022-12-16T01:58:19.576Z,99380.34
2022-12-16T02:01:21.818Z,99392.31
2022-12-16T02:04:23.843Z,99382.06
2022-12-16T02:07:26.891Z,99385.63
2022-12-16T02:10:49.290Z,99380.78
2022-12-16T02:14:07.374Z,99388.84
2022-12-16T02:17:15.021Z,99389.97
2022-12-16T02:20:39.576Z,99386.31
2022-12-16T02:24:29.375Z,99388.53
2022-12-16T02:27:54.955Z,99382.63
2022-12-16T02:31:17.005Z,99382.66
2022-12-16T02:34:29.655Z,99379.66
2022-12-16T02:37:38.607Z,99385.69
2022-12-16T02:40:45.769Z,99383.41
2022-12-16T02:43:53.363Z,99381.38
2022-12-16T02:46:56.733Z,99387.69
2022-12-16T02:50:00.316Z,99378.56
2022-12-16T02:53:03.526Z,99387.13
2022-12-16T02:56:15.900Z,99385.47
2022-12-16T02:59:24.418Z,99390.31
2022-12-16T03:02:34.551Z,99395.03
2022-12-16T03:05:40.898Z,99395.28
2022-12-16T03:08:49.715Z,99392.31
2022-12-16T03:11:54.445Z,99399.59
2022-12-16T03:14:56.301Z,99401.44
2022-12-16T03:18:00.805Z,99395.03
2022-12-16T03:21:05.688Z,99402.84
2022-12-16T03:24:10.603Z,99398.44
2022-12-16T03:27:19.256Z,99401.25
2022-12-16T03:30:26.634Z,99405.31
2022-12-16T03:33:34.837Z,99411.13
2022-12-16T03:36:39.741Z,99413.13
2022-12-16T03:39:46.339Z,99406.84
2022-12-16T03:42:48.709Z,99415.41
2022-12-16T03:45:56.580Z,99418.03
2022-12-16T03:48:59.792Z,99419.25
2022-12-16T03:52:01.343Z,99417.41
2022-12-16T03:55:03.256Z,99427.47
2022-12-16T03:58:04.975Z,99431.09
2022-12-16T04:01:07.995Z,99436.97
2022-12-16T04:04:11.114Z,99444.06
2022-12-16T04:07:21.715Z,99456.53
2022-12-16T04:10:43.608Z,99456.31
2022-12-16T04:14:03.821Z,99457.97
2022-12-16T04:17:24.863Z,99465.84
2022-12-16T04:20:50.095Z,99470.03
2022-12-16T04:24:15.802Z,99476.22
2022-12-16T04:27:27.818Z,99480.00
2022-12-16T04:30:34.731Z,99490.72
2022-12-16T04:33:55.572Z,99492.13
2022-12-16T04:37:19.761Z,99498.41
2022-12-16T04:40:40.272Z,99498.88
2022-12-16T04:44:00.501Z,99495.44
2022-12-16T04:47:21.171Z,99507.03
2022-12-16T04:50:41.758Z,99520.47
2022-12-16T04:54:03.379Z,99513.59
2022-12-16T04:57:24.046Z,99532.59
2022-12-16T05:00:44.496Z,99525.91
2022-12-16T05:04:04.829Z,99520.78
2022-12-16T05:07:25.230Z,99526.34
2022-12-16T05:10:46.745Z,99532.19
2022-12-16T05:14:07.806Z,99539.84
2022-12-16T05:17:28.273Z,99549.09
2022-12-16T05:20:48.905Z,99562.13
2022-12-16T05:24:09.177Z,99559.78
2022-12-16T05:27:30.783Z,99567.00
2022-12-16T05:31:07.729Z,99575.81
2022-12-16T05:34:28.556Z,99572.78
2022-12-16T05:37:48.916Z,99583.22
2022-12-16T05:41:09.159Z,99589.25
2022-12-16T05:44:30.985Z,99595.28
2022-12-16T05:47:51.198Z,99596.91
2022-12-16T05:51:11.345Z,99602.94
2022-12-16T05:54:31.816Z,99617.75
2022-12-16T05:57:53.929Z,99623.53
2022-12-16T06:01:15.858Z,99625.88
2022-12-16T06:04:36.116Z,99629.13
2022-12-16T06:07:56.670Z,99633.31
2022-12-16T06:11:16.797Z,99630.75
2022-12-16T06:14:37.107Z,99644.84
2022-12-16T06:18:02.072Z,99646.47
2022-12-16T06:21:22.485Z,99656.00
2022-12-16T06:24:42.690Z,99652.72
2022-12-16T06:28:09.208Z,99656.69
2022-12-16T06:31:30.082Z,99676.59
2022-12-16T06:34:51.964Z,99671.75
2022-12-16T06:38:12.240Z,99685.63
2022-12-16T06:41:32.815Z,99681.41
2022-12-16T06:44:53.235Z,99695.09
2022-12-16T06:48:13.528Z,99700.41
2022-12-16T06:51:35.337Z,99705.00
2022-12-16T06:54:55.788Z,99701.50
2022-12-16T06:58:16.808Z,99708.22
2022-12-16T07:01:37.201Z,99716.53
2022-12-16T07:04:57.776Z,99716.97
2022-12-16T07:08:19.721Z,99714.25
2022-12-16T07:11:40.030Z,99721.00
2022-12-16T07:15:00.368Z,99737.47
2022-12-16T07:18:20.735Z,99737.94
2022-12-16T07:21:41.073Z,99744.81
2022-12-16T07:25:03.287Z,99765.19
2022-12-16T07:28:23.726Z,99758.25
2022-12-16T07:31:44.287Z,99762.84
2022-12-16T07:35:04.557Z,99767.06
2022-12-16T07:38:24.818Z,99771.47
2022-12-16T07:41:46.685Z,99779.16
2022-12-16T07:45:07.930Z,99787.66
2022-12-16T07:48:28.524Z,99797.19
2022-12-16T07:51:48.924Z,99797.78
2022-12-16T07:55:09.049Z,99806.56
2022-12-16T07:58:30.776Z,99822.13
2022-12-16T08:01:51.591Z,99814.44
2022-12-16T08:05:12.463Z,99829.06
2022-12-16T08:08:33.146Z,99824.25
2022-12-16T08:11:53.424Z,99821.31
2022-12-16T08:15:16.456Z,99824.78
2022-12-16T08:18:36.808Z,99828.78
2022-12-16T08:21:57.453Z,99827.59
2022-12-16T08:25:17.946Z,99840.41
2022-12-16T08:28:38.210Z,99841.41
2022-12-16T08:32:00.112Z,99856.31
2022-12-16T08:35:20.560Z,99851.44
2022-12-16T08:38:40.709Z,99859.09
2022-12-16T08:42:01.051Z,99866.06
2022-12-16T08:45:21.396Z,99871.88
2022-12-16T08:48:43.611Z,99872.88
2022-12-16T08:52:03.961Z,99881.03
2022-12-16T08:55:29.437Z,99884.53
2022-12-16T08:58:50.326Z,99885.91
2022-12-16T09:02:11.921Z,99893.84
2022-12-16T09:05:33.731Z,99903.84
2022-12-16T09:08:54.336Z,99911.72
2022-12-16T09:12:16.219Z,99910.09
2022-12-16T09:15:36.654Z,99917.31
2022-12-16T09:18:57.143Z,99915.44
2022-12-16T09:22:18.700Z,99917.94
2022-12-16T09:25:39.029Z,99921.19
2022-12-16T09:28:59.437Z,99915.09
2022-12-16T09:32:19.727Z,99925.28
2022-12-16T09:35:40.096Z,99930.16
2022-12-16T09:39:01.490Z,99924.06
2022-12-16T09:42:33.642Z,99926.03
2022-12-16T09:46:03.824Z,99928.06
2022-12-16T09:49:35.175Z,99928.38
2022-12-16T09:53:00.006Z,99937.84
2022-12-16T09:56:24.504Z,99933.38
2022-12-16T09:59:49.285Z,99945.34
2022-12-16T10:03:10.777Z,99941.94
2022-12-16T10:06:48.424Z,99940.47
2022-12-16T10:10:19.553Z,99938.88
2022-12-16T10:13:49.623Z,99934.34
2022-12-16T10:17:21.017Z,99940.19
2022-12-16T10:20:52.609Z,99937.03
2022-12-16T10:24:20.656Z,99935.25
2022-12-16T10:27:51.075Z,99939.38
2022-12-16T10:31:13.125Z,99933.34
2022-12-16T10:34:38.056Z,99929.59
2022-12-16T10:37:59.462Z,99935.28
2022-12-16T10:41:40.553Z,99932.38
2022-12-16T10:45:09.501Z,99935.78
2022-12-16T10:48:32.382Z,99929.59
2022-12-16T10:51:53.023Z,99933.31
2022-12-16T10:55:19.920Z,99932.69
2022-12-16T10:58:49.953Z,99940.00
2022-12-16T11:02:19.534Z,99941.66
2022-12-16T11:05:59.329Z,99949.50
2022-12-16T11:09:33.613Z,99951.88
2022-12-16T11:12:53.815Z,99953.41
2022-12-16T11:16:25.858Z,99944.44
2022-12-16T11:19:48.555Z,99943.81
2022-12-16T11:23:26.681Z,99946.50
2022-12-16T11:26:46.759Z,99946.88
2022-12-16T11:30:12.459Z,99945.66
2022-12-16T11:33:39.565Z,99945.22
2022-12-16T11:37:02.709Z,99947.84
2022-12-16T11:40:30.782Z,99954.16
2022-12-16T11:43:51.560Z,99963.50
2022-12-16T11:47:12.769Z,99960.16
2022-12-16T11:50:36.776Z,99962.75
2022-12-16T11:53:59.150Z,99953.03
2022-12-16T11:57:23.248Z,99957.06
2022-12-16T12:00:43.386Z,99961.38
2022-12-16T12:04:07.837Z,99974.56
2022-12-16T12:07:48.455Z,99985.00
2022-12-16T12:11:22.825Z,99984.06
2022-12-16T12:14:51.990Z,99991.41
2022-12-16T12:18:18.249Z,99981.03
2022-12-16T12:21:43.601Z,99981.38
2022-12-16T12:25:11.637Z,99984.91
2022-12-16T12:28:42.549Z,99986.84
2022-12-16T12:32:15.587Z,99991.59
2022-12-16T12:35:54.228Z,99989.69
2022-12-16T12:39:26.570Z,100006.56
2022-12-16T12:42:56.178Z,100003.53
2022-12-16T12:46:23.893Z,100008.34
2022-12-16T12:49:51.929Z,100006.25
2022-12-16T12:53:36.803Z,100028.06
2022-12-16T12:57:03.555Z,100024.63
2022-12-16T13:00:28.490Z,100027.63
2022-12-16T13:03:56.031Z,100024.69
2022-12-16T13:07:23.992Z,100031.41
2022-12-16T13:10:53.831Z,100038.22
2022-12-16T13:14:14.122Z,100029.38
2022-12-16T13:17:35.283Z,100034.38
2022-12-16T13:20:56.773Z,100036.91
2022-12-16T13:24:39.325Z,100049.50
2022-12-16T13:28:12.018Z,100057.25
2022-12-16T13:31:33.284Z,100053.28
2022-12-16T13:34:53.672Z,100058.44
2022-12-16T13:38:15.899Z,100064.69
2022-12-16T13:42:09.540Z,100068.72
2022-12-16T13:45:49.593Z,100074.78
2022-12-16T13:49:10.194Z,100068.19
2022-12-16T13:52:35.706Z,100069.34
2022-12-16T13:56:00.273Z,100079.50
2022-12-16T13:59:27.015Z,100090.84
2022-12-16T14:02:51.784Z,100096.78
2022-12-16T14:06:13.580Z,100093.13
2022-12-16T14:09:45.846Z,100100.69
2022-12-16T14:13:18.002Z,100108.41
2022-12-16T14:16:50.147Z,100112.88
2022-12-16T14:20:19.954Z,100117.28
2022-12-16T14:23:58.032Z,100117.56
2022-12-16T14:27:24.303Z,100122.22
2022-12-16T14:30:45.488Z,100125.41
2022-12-16T14:34:12.637Z,100129.22
2022-12-16T14:37:34.360Z,100135.44
2022-12-16T14:40:54.890Z,100148.69
2022-12-16T14:44:15.254Z,100154.75
2022-12-16T14:47:37.591Z,100159.00
2022-12-16T14:50:59.524Z,100175.06
2022-12-16T14:54:34.932Z,100178.72
2022-12-16T14:57:55.146Z,100182.31
2022-12-16T15:01:33.049Z,100192.91
2022-12-16T15:04:53.498Z,100194.19
2022-12-16T15:08:18.116Z,100193.78
2022-12-16T15:11:41.918Z,100202.97
2022-12-16T15:15:02.756Z,100199.88
2022-12-16T15:18:24.022Z,100204.53
2022-12-16T15:21:44.797Z,100209.25
2022-12-16T15:25:06.797Z,100214.00
2022-12-16T15:28:42.583Z,100219.72
2022-12-16T15:32:03.841Z,100224.06
2022-12-16T15:35:24.753Z,100237.97
2022-12-16T15:38:48.298Z,100248.28
2022-12-16T15:42:09.931Z,100245.56
2022-12-16T15:45:42.177Z,100256.44
2022-12-16T15:49:02.535Z,100258.16
2022-12-16T15:52:40.708Z,100259.19
2022-12-16T15:56:05.213Z,100263.22
2022-12-16T15:59:40.786Z,100266.75
2022-12-16T16:03:06.063Z,100268.41
2022-12-16T16:06:35.663Z,100279.50
2022-12-16T16:09:58.274Z,100280.00
2022-12-16T16:13:18.838Z,100291.25
2022-12-16T16:16:40.269Z,100292.91
2022-12-16T16:20:03.836Z,100300.41
2022-12-16T16:23:24.566Z,100300.91
2022-12-16T16:26:46.739Z,100292.50
2022-12-16T16:30:06.922Z,100299.31
2022-12-16T16:33:28.857Z,100312.19
2022-12-16T16:36:49.031Z,100309.63
2022-12-16T16:40:09.501Z,100306.81
2022-12-16T16:43:29.784Z,100320.56
2022-12-16T16:46:53.253Z,100319.59
2022-12-16T16:50:19.244Z,100333.13
2022-12-16T16:53:39.858Z,100341.84
2022-12-16T16:57:00.262Z,100346.28
2022-12-16T17:00:20.690Z,100347.69
2022-12-16T17:04:00.803Z,100360.53
2022-12-16T17:07:22.533Z,100360.97
2022-12-16T17:10:42.773Z,100371.75
2022-12-16T17:14:02.984Z,100375.00
2022-12-16T17:17:24.590Z,100368.94
2022-12-16T17:20:45.056Z,100374.53
2022-12-16T17:24:06.461Z,100381.06
2022-12-16T17:27:33.284Z,100374.50
2022-12-16T17:30:53.869Z,100389.22
2022-12-16T17:34:14.246Z,100381.03
2022-12-16T17:37:34.542Z,100390.13
2022-12-16T17:40:56.329Z,100385.00
2022-12-16T17:44:18.225Z,100391.50
2022-12-16T17:47:38.665Z,100394.50
2022-12-16T17:50:59.337Z,100404.97
2022-12-16T17:54:25.049Z,100403.16
2022-12-16T17:57:49.562Z,100406.16
2022-12-16T18:01:09.948Z,100411.97
2022-12-16T18:04:30.253Z,100421.94
2022-12-16T18:07:50.473Z,100417.56
2022-12-16T18:11:10.909Z,100425.28
2022-12-16T18:14:32.376Z,100431.13
2022-12-16T18:17:52.613Z,100434.84
2022-12-16T18:21:13.267Z,100434.06
2022-12-16T18:24:33.784Z,100443.06
2022-12-16T18:27:54.924Z,100444.63
2022-12-16T18:31:16.435Z,100446.97
2022-12-16T18:34:37.477Z,100449.09
2022-12-16T18:37:57.873Z,100460.75
2022-12-16T18:41:22.987Z,100462.19
2022-12-16T18:44:43.545Z,100466.78
2022-12-16T18:48:05.283Z,100473.06
2022-12-16T18:51:26.948Z,100484.22
2022-12-16T18:54:47.272Z,100483.66
2022-12-16T18:58:21.094Z,100494.53
2022-12-16T19:01:49.280Z,100489.38
2022-12-16T19:05:11.130Z,100494.09
2022-12-16T19:08:31.978Z,100498.19
2022-12-16T19:11:52.380Z,100499.13
2022-12-16T19:15:12.926Z,100508.94
2022-12-16T19:18:33.668Z,100509.63
2022-12-16T19:21:56.619Z,100514.88
2022-12-16T19:25:17.452Z,100525.75
2022-12-16T19:28:37.892Z,100524.56
2022-12-16T19:31:58.383Z,100530.31
2022-12-16T19:35:18.576Z,100541.88
2022-12-16T19:38:40.365Z,100550.09
2022-12-16T19:42:03.469Z,100550.41
2022-12-16T19:45:24.889Z,100554.81
2022-12-16T19:48:45.561Z,100552.88
2022-12-16T19:52:06.243Z,100561.38
2022-12-16T19:55:28.948Z,100562.66
2022-12-16T19:58:49.532Z,100570.44
2022-12-16T20:02:30.080Z,100570.38
2022-12-16T20:05:50.608Z,100575.78
2022-12-16T20:09:13.583Z,100577.63
2022-12-16T20:12:35.343Z,100580.78
2022-12-16T20:15:56.218Z,100588.31
2022-12-16T20:19:17.114Z,100596.13
2022-12-16T20:22:37.441Z,100592.19
2022-12-16T20:25:57.678Z,100594.38
2022-12-16T20:29:19.647Z,100603.22
2022-12-16T20:32:39.901Z,100598.88
2022-12-16T20:36:00.022Z,100611.22
2022-12-16T20:39:23.507Z,100616.59
2022-12-16T20:42:43.986Z,100623.84
2022-12-16T20:46:05.702Z,100620.00
2022-12-16T20:49:25.831Z,100629.25
2022-12-16T20:52:46.409Z,100633.34
2022-12-16T20:56:06.716Z,100632.78
2022-12-16T20:59:26.859Z,100643.97
2022-12-16T21:02:48.346Z,100644.06
2022-12-16T21:06:08.909Z,100652.84
2022-12-16T21:09:30.074Z,100654.47
2022-12-16T21:12:50.551Z,100657.59
2022-12-16T21:16:10.732Z,100654.78
2022-12-16T21:19:34.748Z,100663.06
2022-12-16T21:22:55.124Z,100671.66
2022-12-16T21:26:18.130Z,100679.34
2022-12-16T21:29:38.268Z,100681.56
2022-12-16T21:32:58.794Z,100676.69
2022-12-16T21:36:20.741Z,100685.13
2022-12-16T21:39:41.164Z,100700.09
2022-12-16T21:43:01.664Z,100703.13
2022-12-16T21:46:21.918Z,100710.56
2022-12-16T21:49:42.116Z,100711.59
2022-12-16T21:53:05.601Z,100712.63
2022-12-16T21:56:27.522Z,100722.50
2022-12-16T21:59:47.696Z,100723.13
2022-12-16T22:03:08.146Z,100731.41
2022-12-16T22:06:29.655Z,100737.00
2022-12-16T22:09:51.589Z,100731.75
2022-12-16T22:13:12.025Z,100731.31
2022-12-16T22:16:32.566Z,100738.34
2022-12-16T22:19:56.128Z,100747.53
2022-12-16T22:23:16.531Z,100753.16
2022-12-16T22:26:38.006Z,100760.06
2022-12-16T22:29:58.193Z,100762.75
2022-12-16T22:33:18.395Z,100771.59
2022-12-16T22:36:39.076Z,100779.00
2022-12-16T22:39:59.594Z,100780.78
2022-12-16T22:43:21.264Z,100784.81
2022-12-16T22:46:41.513Z,100784.81
2022-12-16T22:50:02.049Z,100797.03
2022-12-16T22:53:22.513Z,100794.38
2022-12-16T22:56:42.753Z,100808.88
2022-12-16T23:00:04.589Z,100807.84
2022-12-16T23:03:24.993Z,100807.31
2022-12-16T23:06:45.618Z,100807.19
2022-12-16T23:10:06.213Z,100820.50
2022-12-16T23:13:29.380Z,100821.22
2022-12-16T23:16:51.752Z,100829.19
2022-12-16T23:20:13.803Z,100829.47
2022-12-16T23:23:34.291Z,100829.53
2022-12-16T23:26:54.705Z,100825.66
2022-12-16T23:30:16.538Z,100833.19
2022-12-16T23:33:38.541Z,100823.00
2022-12-16T23:36:59.087Z,100825.13
2022-12-16T23:40:19.577Z,100836.41
2022-12-16T23:43:40.394Z,100831.03
2022-12-16T23:47:00.754Z,100840.31
2022-12-16T23:50:23.313Z,100840.72
2022-12-16T23:53:43.757Z,100847.44
2022-12-16T23:57:03.781Z,100857.22
